Time;durP1;ratioP1;P1;durP2;ratioP2;P2;SDS_P1;SDS_P2;PMS_P1;PMS_P2;Temp;Humidity;BMP_temperature;BMP_pressure;BME280_temperature;BME280_humidity;BME280_pressure;Samples;Min_cycle;Max_cycle;Signal;HPM_P1;HPM_P2
2021/01/04 00:01:30;;;;;;;;;;;4.80;79.60;;;;;;5029541;28;20057;-73
2021/01/04 00:04:12;;;;;;;8.60;4.20;;;4.80;80.00;;;;;;5033196;28;20007;-73
2021/01/04 00:07:03;;;;;;;9.80;3.38;;;4.80;80.00;;;;;;5030374;28;20022;-73
2021/01/04 00:09:40;;;;;;;8.52;3.30;;;4.80;79.90;;;;;;5041863;28;20539;-73
2021/01/04 00:12:20;;;;;;;6.75;3.00;;;4.80;80.10;;;;;;5032998;28;20022;-74
2021/01/04 00:15:01;;;;;;;7.82;3.20;;;4.90;80.20;;;;;;5028849;28;20124;-74
2021/01/04 00:18:00;;;;;;;7.07;2.80;;;4.90;80.10;;;;;;5032056;28;20431;-73
2021/01/04 00:20:43;;;;;;;11.18;3.75;;;4.90;80.20;;;;;;5027336;28;20029;-74
2021/01/04 00:23:33;;;;;;;9.02;2.85;;;4.90;80.10;;;;;;5032151;28;20056;-73
2021/01/04 00:26:06;;;;;;;8.75;3.08;;;4.90;80.00;;;;;;5012443;28;20030;-73
2021/01/04 00:28:35;;;;;;;7.20;2.88;;;4.90;80.00;;;;;;5031677;28;20030;-73
2021/01/04 00:31:03;;;;;;;7.20;3.35;;;4.90;79.70;;;;;;5031451;28;20018;-74
2021/01/04 00:33:43;;;;;;;8.27;2.95;;;4.90;79.60;;;;;;5031826;28;20026;-74
2021/01/04 00:36:29;;;;;;;6.15;2.78;;;4.90;79.80;;;;;;5031054;28;20032;-74
2021/01/04 00:39:31;;;;;;;8.15;2.72;;;4.90;80.00;;;;;;5031961;28;20033;-74
2021/01/04 00:41:59;;;;;;;;;;;4.90;79.60;;;;;;5033073;28;20527;-75
2021/01/04 00:45:04;;;;;;;8.23;2.90;;;5.00;79.30;;;;;;5047818;28;19905;-74
2021/01/04 00:47:30;;;;;;;6.43;2.83;;;5.00;79.30;;;;;;5039296;28;20041;-74
2021/01/04 00:50:13;;;;;;;6.55;2.72;;;5.00;79.30;;;;;;5032214;28;20545;-74
2021/01/04 00:53:00;;;;;;;7.13;2.88;;;5.00;78.40;;;;;;5046261;28;20021;-74
2021/01/04 00:55:44;;;;;;;7.93;2.92;;;5.00;78.60;;;;;;5030960;28;20048;-73
2021/01/04 00:58:25;;;;;;;5.50;2.28;;;5.00;78.40;;;;;;5046767;28;20033;-74
2021/01/04 01:01:16;;;;;;;8.20;2.88;;;5.00;78.50;;;;;;5030577;28;20393;-74
2021/01/04 01:03:51;;;;;;;6.32;2.10;;;5.00;78.40;;;;;;5030771;28;20033;-74
2021/01/04 01:06:49;;;;;;;8.32;2.88;;;5.00;78.50;;;;;;5030444;28;20487;-74
2021/01/04 01:09:15;;;;;;;7.07;2.42;;;5.10;78.30;;;;;;5020873;28;20526;-74
2021/01/04 01:12:26;;;;;;;6.50;2.50;;;5.10;77.70;;;;;;5041254;28;20026;-75
2021/01/04 01:15:24;;;;;;;4.50;1.90;;;5.10;78.00;;;;;;5045515;28;20120;-74
2021/01/04 01:18:16;;;;;;;5.55;2.38;;;5.10;77.90;;;;;;5029124;28;20117;-74
2021/01/04 01:20:50;;;;;;;5.47;2.42;;;5.10;78.10;;;;;;5029968;28;20113;-74
2021/01/04 01:23:18;;;;;;;4.15;1.92;;;5.10;78.20;;;;;;5031560;28;20072;-74
2021/01/04 01:25:52;;;;;;;4.93;2.10;;;5.10;78.00;;;;;;5030566;28;20032;-75
2021/01/04 01:29:15;;;;;;;6.32;2.03;;;5.10;77.70;;;;;;5031864;28;20029;-74
2021/01/04 01:32:24;;;;;;;6.95;2.00;;;5.10;77.80;;;;;;4982984;28;20589;-73
2021/01/04 01:35:07;;;;;;;6.13;2.20;;;5.10;78.00;;;;;;5046317;28;20116;-72
2021/01/04 01:38:00;;;;;;;6.55;2.22;;;5.10;77.60;;;;;;5013943;28;20033;-73
2021/01/04 01:40:42;;;;;;;3.92;1.92;;;5.10;78.00;;;;;;5030071;28;20366;-74
2021/01/04 01:43:28;;;;;;;3.55;1.50;;;5.10;77.50;;;;;;5030199;28;20025;-74
2021/01/04 01:46:07;;;;;;;6.30;2.05;;;5.10;77.00;;;;;;5041428;28;20033;-75
2021/01/04 01:49:01;;;;;;;6.25;1.98;;;5.10;77.20;;;;;;5029897;28;20076;-74
2021/01/04 01:51:50;;;;;;;4.25;1.73;;;5.10;76.90;;;;;;5030784;28;20025;-74
2021/01/04 01:54:49;;;;;;;3.80;1.60;;;5.10;77.40;;;;;;5030445;28;20045;-74
2021/01/04 01:57:28;;;;;;;5.53;1.85;;;5.20;76.70;;;;;;5030129;28;20037;-74
2021/01/04 02:00:18;;;;;;;4.82;1.70;;;5.10;76.50;;;;;;5030181;28;20041;-74
2021/01/04 02:03:01;;;;;;;5.05;2.00;;;5.10;76.70;;;;;;5029141;28;20993;-74
2021/01/04 02:05:58;;;;;;;5.18;1.73;;;5.10;76.80;;;;;;5041670;28;20033;-73
2021/01/04 02:08:27;;;;;;;6.10;1.75;;;5.10;76.90;;;;;;5028311;28;20396;-73
2021/01/04 02:10:58;;;;;;;3.55;1.40;;;5.10;76.80;;;;;;5013295;28;20482;-73
2021/01/04 02:13:36;;;;;;;6.55;2.38;;;5.10;77.30;;;;;;5013398;28;20421;-73
2021/01/04 02:16:10;;;;;;;5.38;2.20;;;5.10;77.20;;;;;;5029904;28;20026;-72
2021/01/04 02:18:57;;;;;;;6.25;1.63;;;5.10;77.30;;;;;;5033991;28;20061;-72
2021/01/04 02:21:54;;;;;;;5.85;2.00;;;5.10;77.50;;;;;;5016795;28;20974;-73
2021/01/04 02:24:25;;;;;;;3.50;1.60;;;5.00;78.00;;;;;;5046422;28;20112;-73
2021/01/04 02:27:10;;;;;;;5.43;1.85;;;5.00;78.60;;;;;;5050061;28;20034;-74
2021/01/04 02:29:36;;;;;;;5.38;1.48;;;5.00;78.50;;;;;;5034738;28;20061;-72
2021/01/04 02:32:05;;;;;;;4.75;1.65;;;5.00;77.90;;;;;;5042544;28;20045;-73
2021/01/04 02:34:43;;;;;;;3.13;1.45;;;5.10;78.10;;;;;;5032655;28;20396;-73
2021/01/04 02:37:09;;;;;;;3.90;1.67;;;5.00;77.70;;;;;;5047351;28;20075;-73
2021/01/04 02:40:01;;;;;;;5.18;1.30;;;5.00;77.70;;;;;;5033411;28;21806;-73
2021/01/04 02:42:31;;;;;;;5.80;1.45;;;5.00;77.70;;;;;;5033818;28;20057;-75
2021/01/04 02:44:58;;;;;;;5.13;1.50;;;5.00;77.80;;;;;;5034079;28;20599;-73
2021/01/04 02:47:36;;;;;;;4.43;1.65;;;5.00;78.10;;;;;;5047024;28;20032;-73
2021/01/04 02:50:08;;;;;;;6.72;1.95;;;5.00;78.30;;;;;;5044988;28;20026;-73
2021/01/04 02:53:19;;;;;;;4.20;1.08;;;5.10;78.60;;;;;;5042626;28;20026;-73
2021/01/04 02:56:12;;;;;;;4.63;1.30;;;5.00;78.90;;;;;;5032010;28;20116;-73
2021/01/04 02:58:38;;;;;;;3.92;1.40;;;5.00;79.30;;;;;;5027844;28;20303;-74
2021/01/04 03:01:11;;;;;;;4.35;1.33;;;5.00;79.30;;;;;;5032519;28;20532;-74
2021/01/04 03:03:39;;;;;;;3.42;1.05;;;5.00;79.40;;;;;;5033397;28;20507;-74
2021/01/04 03:06:11;;;;;;;3.85;1.33;;;5.00;79.80;;;;;;5046732;28;20025;-74
2021/01/04 03:08:36;;;;;;;;;;;5.00;79.80;;;;;;5031756;28;20025;-73
2021/01/04 03:11:05;;;;;;;5.20;1.50;;;5.00;79.80;;;;;;5030497;28;20436;-74
2021/01/04 03:13:52;;;;;;;5.85;1.13;;;5.00;80.10;;;;;;5034294;28;20022;-73
2021/01/04 03:16:39;;;;;;;6.32;1.30;;;5.00;79.90;;;;;;5037979;28;20038;-74
2021/01/04 03:19:16;;;;;;;3.55;1.20;;;4.90;79.70;;;;;;5056758;22;20452;-76
2021/01/04 03:21:42;;;;;;;3.38;1.50;;;4.90;79.80;;;;;;5022304;28;20033;-77
2021/01/04 03:24:15;;;;;;;4.03;1.20;;;4.90;79.80;;;;;;5020621;28;20033;-76
2021/01/04 03:26:51;;;;;;;3.97;1.00;;;4.90;79.50;;;;;;5005831;28;20061;-76
2021/01/04 03:29:17;;;;;;;4.22;1.00;;;4.90;79.50;;;;;;5006268;28;20416;-77
2021/01/04 03:31:43;;;;;;;5.03;1.65;;;4.80;79.50;;;;;;5004636;28;20033;-76
2021/01/04 03:34:09;;;;;;;5.05;1.08;;;4.90;79.60;;;;;;5023035;28;20026;-76
2021/01/04 03:36:34;;;;;;;2.38;0.90;;;4.80;79.70;;;;;;5023750;28;20493;-76
2021/01/04 03:39:00;;;;;;;3.70;1.00;;;4.80;80.00;;;;;;5006628;28;20091;-76
2021/01/04 03:41:27;;;;;;;3.65;1.00;;;4.80;80.00;;;;;;5021543;28;20113;-77
2021/01/04 03:43:52;;;;;;;5.07;1.00;;;4.80;80.10;;;;;;5020372;28;20031;-77
2021/01/04 03:46:18;;;;;;;4.93;1.02;;;4.80;80.10;;;;;;5004578;28;20354;-76
2021/01/04 03:48:43;;;;;;;4.25;1.25;;;4.80;80.40;;;;;;5022074;28;20072;-77
2021/01/04 03:51:09;;;;;;;2.67;0.90;;;4.70;80.50;;;;;;5020518;28;20027;-75
2021/01/04 03:53:35;;;;;;;2.28;0.95;;;4.70;80.70;;;;;;5022639;28;20026;-77
2021/01/04 03:56:01;;;;;;;4.15;1.10;;;4.80;80.80;;;;;;5002981;28;20034;-76
2021/01/04 03:58:27;;;;;;;2.78;0.80;;;4.70;80.90;;;;;;5018521;28;20095;-76
2021/01/04 04:00:53;;;;;;;4.45;1.10;;;4.70;81.00;;;;;;5021243;28;20029;-76
2021/01/04 04:03:18;;;;;;;4.30;1.23;;;4.70;81.30;;;;;;5023249;28;20256;-76
2021/01/04 04:05:44;;;;;;;6.50;1.17;;;4.60;81.80;;;;;;5022475;28;20030;-76
2021/01/04 04:08:10;;;;;;;4.13;1.02;;;4.70;81.70;;;;;;5020403;28;20030;-76
2021/01/04 04:10:35;;;;;;;3.50;0.80;;;4.60;81.40;;;;;;5020249;28;20031;-75
2021/01/04 04:13:01;;;;;;;3.30;1.20;;;4.60;81.60;;;;;;5004682;28;20025;-76
2021/01/04 04:15:27;;;;;;;3.45;1.30;;;4.60;81.70;;;;;;5004723;28;20033;-76
2021/01/04 04:17:52;;;;;;;4.95;1.15;;;4.60;82.00;;;;;;5022834;28;20025;-76
2021/01/04 04:20:24;;;;;;;3.75;1.02;;;4.60;82.20;;;;;;5025809;28;20032;-78
2021/01/04 04:22:52;;;;;;;4.30;1.20;;;4.60;82.50;;;;;;5023143;28;20034;-76
2021/01/04 04:25:19;;;;;;;4.30;1.20;;;4.60;82.90;;;;;;5021900;28;20041;-76
2021/01/04 04:27:45;;;;;;;4.45;1.15;;;4.60;83.40;;;;;;5021434;28;20034;-77
2021/01/04 04:30:15;;;;;;;5.15;1.10;;;4.60;83.50;;;;;;5021670;28;20025;-77
2021/01/04 04:32:40;;;;;;;5.80;0.95;;;4.60;84.20;;;;;;5022176;28;20022;-77
2021/01/04 04:35:08;;;;;;;3.83;0.90;;;4.60;84.80;;;;;;5021298;28;20029;-76
2021/01/04 04:37:34;;;;;;;4.70;0.75;;;4.50;85.30;;;;;;5020786;28;20050;-76
2021/01/04 04:40:00;;;;;;;3.42;1.00;;;4.50;85.60;;;;;;5019905;28;20025;-77
2021/01/04 04:42:26;;;;;;;3.22;1.05;;;4.60;86.20;;;;;;5026628;28;20456;-76
2021/01/04 04:45:05;;;;;;;2.33;0.95;;;4.50;86.40;;;;;;5021280;28;20030;-76
2021/01/04 04:47:49;;;;;;;4.07;0.90;;;4.50;86.90;;;;;;5003611;28;20033;-76
2021/01/04 04:50:39;;;;;;;2.00;0.90;;;4.50;87.20;;;;;;5021924;28;20033;-75
2021/01/04 04:53:42;;;;;;;7.30;1.25;;;4.50;87.20;;;;;;5021505;28;20163;-76
2021/01/04 04:56:33;;;;;;;4.57;1.25;;;4.50;87.40;;;;;;5020444;28;20025;-78
2021/01/04 04:59:01;;;;;;;2.00;0.60;;;4.50;88.20;;;;;;5004418;28;20036;-76
2021/01/04 05:01:38;;;;;;;2.67;0.88;;;4.50;88.90;;;;;;5000443;28;20509;-76
2021/01/04 05:04:12;;;;;;;3.45;0.82;;;4.50;89.70;;;;;;5042506;28;20080;-76
2021/01/04 05:06:52;;;;;;;2.10;0.80;;;4.40;90.10;;;;;;5019775;28;20521;-76
2021/01/04 05:09:45;;;;;;;1.33;0.88;;;4.40;90.30;;;;;;5019331;28;20041;-75
2021/01/04 05:12:17;;;;;;;4.28;0.80;;;4.40;90.40;;;;;;5021236;28;20075;-76
2021/01/04 05:14:53;;;;;;;3.72;0.95;;;4.30;90.70;;;;;;5002706;28;20033;-76
2021/01/04 05:17:33;;;;;;;2.42;0.75;;;4.30;90.60;;;;;;5017516;28;20028;-76
2021/01/04 05:20:34;;;;;;;3.42;1.20;;;4.30;90.80;;;;;;5020094;28;20032;-77
2021/01/04 05:23:11;;;;;;;2.30;0.98;;;4.20;90.70;;;;;;5018933;28;20034;-77
2021/01/04 05:26:10;;;;;;;3.40;0.90;;;4.20;90.90;;;;;;5018762;28;20489;-76
2021/01/04 05:28:45;;;;;;;4.15;1.35;;;4.20;90.90;;;;;;5047299;28;20103;-77
2021/01/04 05:31:41;;;;;;;3.28;1.10;;;4.20;91.10;;;;;;5041457;28;20022;-76
2021/01/04 05:34:41;;;;;;;6.22;1.30;;;4.20;91.30;;;;;;5019222;28;20021;-76
2021/01/04 05:37:27;;;;;;;6.53;1.20;;;4.10;91.40;;;;;;4992996;28;20038;-75
2021/01/04 05:40:05;;;;;;;6.25;1.05;;;4.20;91.40;;;;;;5019606;28;20034;-76
2021/01/04 05:42:31;;;;;;;2.97;1.25;;;4.20;91.40;;;;;;5002693;28;20050;-77
2021/01/04 05:45:26;;;;;;;4.43;1.30;;;4.10;91.40;;;;;;5020076;28;20084;-76
2021/01/04 05:48:13;;;;;;;5.22;1.30;;;4.10;91.50;;;;;;5022763;28;20049;-75
2021/01/04 05:50:53;;;;;;;3.28;1.38;;;4.10;91.40;;;;;;5001412;28;20114;-75
2021/01/04 05:53:19;;;;;;;5.55;1.33;;;4.10;91.50;;;;;;5000889;28;20022;-78
2021/01/04 05:55:44;;;;;;;3.75;1.40;;;4.10;91.70;;;;;;5000133;28;20030;-76
2021/01/04 05:58:19;;;;;;;4.55;1.55;;;4.10;91.70;;;;;;5020367;28;20496;-76
2021/01/04 06:00:45;;;;;;;4.47;1.20;;;4.00;91.70;;;;;;5017311;28;20021;-77
2021/01/04 06:03:20;;;;;;;3.67;1.38;;;4.00;91.80;;;;;;5019595;28;20120;-77
2021/01/04 06:05:47;;;;;;;3.33;1.45;;;3.90;91.80;;;;;;5017991;28;20030;-77
2021/01/04 06:08:27;;;;;;;2.63;1.33;;;3.90;91.80;;;;;;5019075;28;20103;-77
2021/01/04 06:11:11;;;;;;;3.35;1.23;;;3.90;91.80;;;;;;5024355;28;20030;-77
2021/01/04 06:13:42;;;;;;;1.92;1.10;;;3.80;91.90;;;;;;5001946;28;20025;-77
2021/01/04 06:16:10;;;;;;;2.92;1.30;;;3.80;92.00;;;;;;5018830;28;20034;-77
2021/01/04 06:18:42;;;;;;;5.03;1.30;;;3.80;92.00;;;;;;5018577;28;20038;-77
2021/01/04 06:21:35;;;;;;;2.20;1.33;;;3.80;92.00;;;;;;5001095;28;20506;-77
2021/01/04 06:24:02;;;;;;;3.33;1.65;;;3.70;92.10;;;;;;5019073;28;20037;-77
2021/01/04 06:26:28;;;;;;;2.35;1.40;;;3.70;92.10;;;;;;5037519;28;20033;-77
2021/01/04 06:28:58;;;;;;;4.57;1.58;;;3.70;92.00;;;;;;5018635;28;20478;-76
2021/01/04 06:31:46;;;;;;;3.40;1.27;;;3.80;92.00;;;;;;5041248;28;20030;-77
2021/01/04 06:34:29;;;;;;;4.85;1.30;;;3.70;91.90;;;;;;5024985;28;20032;-77
2021/01/04 06:37:00;;;;;;;2.53;1.38;;;3.60;92.10;;;;;;5007688;28;20076;-76
2021/01/04 06:39:30;;;;;;;2.30;1.40;;;3.60;92.10;;;;;;5020832;28;20393;-76
2021/01/04 06:42:11;;;;;;;1.77;0.98;;;3.60;92.10;;;;;;5025053;28;20061;-77
2021/01/04 06:44:37;;;;;;;3.10;1.20;;;3.60;91.80;;;;;;5023125;28;20124;-76
2021/01/04 06:47:38;;;;;;;2.03;1.50;;;3.50;91.90;;;;;;5012173;28;20620;-76
2021/01/04 06:50:26;;;;;;;2.63;1.20;;;3.50;91.80;;;;;;4967176;28;20027;-77
2021/01/04 06:53:15;;;;;;;1.98;1.35;;;3.50;91.80;;;;;;5016136;28;20056;-76
2021/01/04 06:56:00;;;;;;;1.98;1.30;;;3.40;91.80;;;;;;5008830;28;20060;-77
2021/01/04 06:58:56;;;;;;;2.65;1.20;;;3.40;91.80;;;;;;5007504;28;20112;-76
2021/01/04 07:01:39;;;;;;;2.42;1.52;;;3.40;91.90;;;;;;5028603;28;20034;-75
2021/01/04 07:04:33;;;;;;;5.88;2.05;;;3.40;92.00;;;;;;5029227;28;20029;-78
2021/01/04 07:07:09;;;;;;;3.45;1.88;;;3.40;92.10;;;;;;5010077;28;20014;-78
2021/01/04 07:09:58;;;;;;;3.25;1.70;;;3.40;92.10;;;;;;5024042;28;20409;-77
2021/01/04 07:12:48;;;;;;;4.18;1.50;;;3.40;92.20;;;;;;5027537;28;20504;-74
2021/01/04 07:15:31;;;;;;;3.25;1.40;;;3.40;92.20;;;;;;5030601;28;20064;-76
2021/01/04 07:18:00;;;;;;;2.30;1.38;;;3.40;92.00;;;;;;5024761;28;20492;-75
2021/01/04 07:20:55;;;;;;;2.35;1.60;;;3.40;92.10;;;;;;5027865;28;20040;-74
2021/01/04 07:23:47;;;;;;;4.93;1.52;;;3.40;92.00;;;;;;5029326;28;20378;-75
2021/01/04 07:26:48;;;;;;;3.70;1.90;;;3.40;91.90;;;;;;5025238;28;20030;-73
2021/01/04 07:29:20;;;;;;;2.78;1.58;;;3.40;92.00;;;;;;4996309;28;20092;-77
2021/01/04 07:31:57;;;;;;;4.63;1.63;;;3.30;91.90;;;;;;5027281;28;20400;-75
2021/01/04 07:34:30;;;;;;;2.80;1.50;;;3.30;91.90;;;;;;5006479;28;20032;-73
2021/01/04 07:37:17;;;;;;;3.58;1.60;;;3.30;92.00;;;;;;5028498;28;20432;-73
2021/01/04 07:39:49;;;;;;;4.50;1.30;;;3.30;92.00;;;;;;5028444;28;20064;-72
2021/01/04 07:42:55;;;;;;;3.03;1.40;;;3.30;92.00;;;;;;5030255;28;20457;-73
2021/01/04 07:45:43;;;;;;;5.55;1.65;;;3.30;91.90;;;;;;5009719;28;20040;-74
2021/01/04 07:48:39;;;;;;;3.40;1.50;;;3.20;92.00;;;;;;5011020;28;20026;-73
2021/01/04 07:51:26;;;;;;;4.40;1.50;;;3.20;92.00;;;;;;5031547;28;20089;-73
2021/01/04 07:54:07;;;;;;;2.42;1.35;;;3.20;92.10;;;;;;5009719;28;20116;-73
2021/01/04 07:57:07;;;;;;;2.72;1.70;;;3.20;92.10;;;;;;5030510;28;20124;-74
2021/01/04 07:59:35;;;;;;;2.47;1.60;;;3.20;92.00;;;;;;5029475;28;20030;-73
2021/01/04 08:02:28;;;;;;;3.78;1.60;;;3.20;92.00;;;;;;5005574;28;20160;-73
2021/01/04 08:05:22;;;;;;;2.50;1.33;;;3.20;92.00;;;;;;5029067;28;20206;-74
2021/01/04 08:07:59;;;;;;;5.53;1.63;;;3.20;91.90;;;;;;5025201;28;20116;-73
2021/01/04 08:10:38;;;;;;;4.00;1.52;;;3.20;92.10;;;;;;5017291;28;20018;-73
2021/01/04 08:13:28;;;;;;;2.38;1.50;;;3.10;91.80;;;;;;5028413;28;20087;-75
2021/01/04 08:16:03;;;;;;;2.53;1.57;;;3.20;93.40;;;;;;5008021;28;20488;-74
2021/01/04 08:18:31;;;;;;;2.72;1.48;;;3.20;91.70;;;;;;5030848;28;20419;-76
2021/01/04 08:21:24;;;;;;;2.95;1.50;;;3.30;91.80;;;;;;5027394;28;20052;-76
2021/01/04 08:24:04;;;;;;;3.03;1.67;;;3.20;91.70;;;;;;5029432;28;20523;-76
2021/01/04 08:26:48;;;;;;;2.28;1.60;;;3.20;91.70;;;;;;5024457;28;20060;-72
2021/01/04 08:29:29;;;;;;;4.32;1.80;;;3.10;91.90;;;;;;5027348;28;20504;-72
2021/01/04 08:32:08;;;;;;;2.10;1.38;;;3.20;91.70;;;;;;5028691;28;20111;-74
2021/01/04 08:34:42;;;;;;;5.47;1.90;;;3.10;91.70;;;;;;5026763;28;20026;-75
2021/01/04 08:37:08;;;;;;;3.95;1.60;;;3.10;91.80;;;;;;5027701;28;20025;-72
2021/01/04 08:39:50;;;;;;;4.45;1.60;;;3.10;91.80;;;;;;5009204;28;20478;-74
2021/01/04 08:42:17;;;;;;;;;;;3.10;91.90;;;;;;5026191;28;20080;-74
2021/01/04 08:44:57;;;;;;;3.55;1.92;;;3.10;91.70;;;;;;5042251;28;20019;-74
2021/01/04 08:47:48;;;;;;;3.22;1.45;;;3.00;91.80;;;;;;5028715;28;20033;-72
2021/01/04 08:50:30;;;;;;;4.47;1.88;;;3.00;91.90;;;;;;5005949;28;20033;-75
2021/01/04 08:53:17;;;;;;;2.85;1.88;;;3.00;91.90;;;;;;5028461;28;20030;-74
2021/01/04 08:55:43;;;;;;;3.15;1.85;;;3.00;92.00;;;;;;5008263;28;20026;-75
2021/01/04 08:58:20;;;;;;;4.00;1.70;;;3.00;91.90;;;;;;5024357;28;20040;-75
2021/01/04 09:01:01;;;;;;;3.53;1.73;;;3.00;92.00;;;;;;5024408;28;20242;-75
2021/01/04 09:03:31;;;;;;;5.13;1.60;;;3.00;91.90;;;;;;5029034;28;20033;-76
2021/01/04 09:06:08;;;;;;;4.82;1.65;;;3.00;92.00;;;;;;5027192;28;20071;-75
2021/01/04 09:08:38;;;;;;;3.53;1.52;;;3.00;92.00;;;;;;5025063;28;20112;-74
2021/01/04 09:11:07;;;;;;;5.05;1.67;;;3.00;92.00;;;;;;5007928;28;20030;-74
2021/01/04 09:13:36;;;;;;;2.70;1.88;;;3.10;91.90;;;;;;5011154;28;20037;-75
2021/01/04 09:16:10;;;;;;;3.50;2.00;;;3.10;91.80;;;;;;5027595;28;20026;-76
2021/01/04 09:18:49;;;;;;;7.32;2.00;;;3.10;91.70;;;;;;5025331;28;20493;-76
2021/01/04 09:21:31;;;;;;;3.95;1.98;;;3.10;91.80;;;;;;5023586;28;20496;-75
2021/01/04 09:24:18;;;;;;;3.35;1.92;;;3.10;91.80;;;;;;5029945;28;20453;-75
2021/01/04 09:26:45;;;;;;;3.92;2.03;;;3.10;91.70;;;;;;5027937;28;20040;-75
2021/01/04 09:29:26;;;;;;;3.03;1.67;;;3.10;91.80;;;;;;5030167;28;20017;-74
2021/01/04 09:32:06;;;;;;;2.60;1.73;;;3.10;91.90;;;;;;5024788;28;20026;-74
2021/01/04 09:34:32;;;;;;;4.70;1.90;;;3.10;91.70;;;;;;5016164;28;20033;-75
2021/01/04 09:37:12;;;;;;;2.42;1.50;;;3.20;91.70;;;;;;5021372;28;20038;-74
2021/01/04 09:39:42;;;;;;;3.30;1.60;;;3.20;91.60;;;;;;5040337;28;20060;-75
2021/01/04 09:42:14;;;;;;;3.17;1.60;;;3.10;91.50;;;;;;5020952;28;20032;-75
2021/01/04 09:44:40;;;;;;;4.18;1.60;;;3.20;91.60;;;;;;5008198;28;20025;-75
2021/01/04 09:47:17;;;;;;;3.13;1.52;;;3.20;91.60;;;;;;5024644;28;20052;-75
2021/01/04 09:49:47;;;;;;;2.90;1.38;;;3.20;91.50;;;;;;5026106;28;20028;-75
2021/01/04 09:52:42;;;;;;;4.38;2.25;;;3.20;91.50;;;;;;5009898;28;20071;-75
2021/01/04 09:55:10;;;;;;;2.38;1.40;;;3.20;91.60;;;;;;5006510;28;20028;-75
2021/01/04 09:57:44;;;;;;;2.50;1.58;;;3.20;91.40;;;;;;5009462;28;20481;-74
2021/01/04 10:00:22;;;;;;;3.88;1.60;;;3.20;91.60;;;;;;5020869;28;20018;-74
2021/01/04 10:02:58;;;;;;;2.20;1.52;;;3.20;91.30;;;;;;5024371;28;20041;-76
2021/01/04 10:05:30;;;;;;;5.45;2.22;;;3.20;91.50;;;;;;5005264;28;20037;-76
2021/01/04 10:07:57;;;;;;;2.03;1.40;;;3.20;91.50;;;;;;5024627;28;20026;-75
2021/01/04 10:10:23;;;;;;;3.78;1.67;;;3.20;91.40;;;;;;5026159;28;20401;-75
2021/01/04 10:12:48;;;;;;;3.05;1.60;;;3.20;91.30;;;;;;5021755;28;20032;-75
2021/01/04 10:15:28;;;;;;;2.58;1.50;;;3.20;91.40;;;;;;5007490;28;20552;-75
2021/01/04 10:18:19;;;;;;;4.47;1.48;;;3.20;91.40;;;;;;5023415;28;20036;-75
2021/01/04 10:20:50;;;;;;;2.95;1.30;;;3.20;91.50;;;;;;5004087;28;20049;-75
2021/01/04 10:23:26;;;;;;;;;;;3.20;91.40;;;;;;5017933;28;20036;-76
2021/01/04 10:25:56;;;;;;;4.15;1.40;;;3.20;91.50;;;;;;5001348;28;20551;-75
2021/01/04 10:28:22;;;;;;;2.30;1.23;;;3.20;91.50;;;;;;5038292;28;20060;-76
2021/01/04 10:30:47;;;;;;;4.72;1.23;;;3.20;91.30;;;;;;5021988;28;20029;-76
2021/01/04 10:33:32;;;;;;;4.57;1.67;;;3.20;91.50;;;;;;5025095;28;20021;-75
2021/01/04 10:36:09;;;;;;;2.55;1.40;;;3.20;91.40;;;;;;5024547;28;20030;-76
2021/01/04 10:38:38;;;;;;;1.90;1.27;;;3.30;91.30;;;;;;5021064;28;20482;-75
2021/01/04 10:41:12;;;;;;;3.47;1.70;;;3.20;91.40;;;;;;5022022;28;20136;-76
2021/01/04 10:43:38;;;;;;;2.60;1.15;;;3.30;91.40;;;;;;5024421;28;20642;-75
2021/01/04 10:46:32;;;;;;;3.00;1.25;;;3.40;91.30;;;;;;5026493;28;20026;-75
2021/01/04 10:49:01;;;;;;;4.65;1.27;;;3.30;91.20;;;;;;5032121;28;20492;-75
2021/01/04 10:51:28;;;;;;;4.18;1.40;;;3.40;91.20;;;;;;5021049;28;20060;-76
2021/01/04 10:53:54;;;;;;;2.33;1.63;;;3.30;91.30;;;;;;5029241;28;20030;-75
2021/01/04 10:56:19;;;;;;;2.65;1.40;;;3.30;91.40;;;;;;5026370;28;20076;-74
2021/01/04 10:59:13;;;;;;;3.58;1.20;;;3.30;91.80;;;;;;5023708;28;20108;-76
2021/01/04 11:01:42;;;;;;;2.33;1.48;;;3.30;91.50;;;;;;5042367;28;20051;-74
2021/01/04 11:04:15;;;;;;;7.93;2.50;;;3.30;91.50;;;;;;5009892;28;20476;-75
2021/01/04 11:06:44;;;;;;;3.92;1.33;;;3.40;93.50;;;;;;5027769;28;20109;-77
2021/01/04 11:09:19;;;;;;;2.83;1.52;;;3.60;91.10;;;;;;5025472;28;20021;-76
2021/01/04 11:11:48;;;;;;;3.22;1.15;;;3.60;91.10;;;;;;5031512;28;20396;-77
2021/01/04 11:14:21;;;;;;;6.57;1.48;;;3.50;91.00;;;;;;5030016;28;20026;-76
2021/01/04 11:16:52;;;;;;;3.08;1.30;;;3.50;91.10;;;;;;5008500;28;20018;-75
2021/01/04 11:19:34;;;;;;;;;;;3.50;91.10;;;;;;5020270;28;20075;-74
2021/01/04 11:22:16;;;;;;;1.73;1.13;;;3.50;91.10;;;;;;5028107;28;19916;-75
2021/01/04 11:24:42;;;;;;;2.83;1.17;;;3.50;91.20;;;;;;5020546;28;20032;-74
2021/01/04 11:27:08;;;;;;;3.08;1.10;;;3.40;91.30;;;;;;5029012;28;20038;-75
2021/01/04 11:29:37;;;;;;;2.75;1.50;;;3.40;91.40;;;;;;5027306;28;20108;-75
2021/01/04 11:32:10;;;;;;;5.53;2.55;;;3.40;91.60;;;;;;5011791;28;20026;-75
2021/01/04 11:34:36;;;;;;;2.25;1.30;;;3.50;92.80;;;;;;5028409;28;20029;-76
2021/01/04 11:37:01;;;;;;;2.92;1.10;;;3.60;91.30;;;;;;5026052;28;20029;-79
2021/01/04 11:39:27;;;;;;;149.25;30.77;;;3.60;91.30;;;;;;5012516;28;20048;-76
2021/01/04 11:41:53;;;;;;;8.90;3.05;;;3.50;92.70;;;;;;5021696;28;20508;-75
2021/01/04 11:44:19;;;;;;;4.95;1.58;;;3.60;91.40;;;;;;5026098;28;20037;-73
2021/01/04 11:46:45;;;;;;;3.65;1.58;;;3.50;91.30;;;;;;5021283;28;20037;-73
2021/01/04 11:49:11;;;;;;;2.95;1.25;;;3.50;91.40;;;;;;5020544;28;20049;-73
2021/01/04 11:51:37;;;;;;;2.90;1.30;;;3.40;91.40;;;;;;5019310;28;20029;-74
2021/01/04 11:54:04;;;;;;;3.10;1.10;;;3.40;91.60;;;;;;5011321;28;20068;-75
2021/01/04 11:56:34;;;;;;;4.15;1.77;;;3.40;91.60;;;;;;5024455;28;20029;-76
2021/01/04 11:58:59;;;;;;;0.88;0.73;;;3.40;91.60;;;;;;5026275;28;20079;-75
2021/01/04 12:01:29;;;;;;;1.33;0.80;;;3.40;91.70;;;;;;5024581;28;20424;-75
2021/01/04 12:03:55;;;;;;;1.73;0.88;;;3.50;91.60;;;;;;5028194;28;20030;-73
2021/01/04 12:06:21;;;;;;;1.50;0.80;;;3.40;91.50;;;;;;5027973;28;20025;-74
2021/01/04 12:08:47;;;;;;;4.13;1.15;;;3.40;91.60;;;;;;5007056;28;20030;-74
2021/01/04 12:11:13;;;;;;;2.28;1.00;;;3.50;91.90;;;;;;5014305;28;20109;-75
2021/01/04 12:13:39;;;;;;;3.10;0.90;;;3.50;91.80;;;;;;5028650;28;20026;-73
2021/01/04 12:16:05;;;;;;;3.10;0.68;;;3.50;91.80;;;;;;5008754;28;20025;-72
2021/01/04 12:18:31;;;;;;;1.52;1.00;;;3.50;92.20;;;;;;5006372;28;20037;-72
2021/01/04 12:20:57;;;;;;;2.22;1.10;;;3.50;92.10;;;;;;5024863;28;20033;-73
2021/01/04 12:23:23;;;;;;;1.60;1.00;;;3.50;92.20;;;;;;5022597;28;20030;-73
2021/01/04 12:25:48;;;;;;;1.90;1.02;;;3.50;92.10;;;;;;5024363;28;20444;-74
2021/01/04 12:28:14;;;;;;;2.00;0.90;;;3.40;92.20;;;;;;5025634;28;20025;-73
2021/01/04 12:30:40;;;;;;;5.07;1.58;;;3.50;92.40;;;;;;5027748;28;20021;-74
2021/01/04 12:33:06;;;;;;;1.85;1.10;;;3.40;92.20;;;;;;5027560;28;20036;-72
2021/01/04 12:35:33;;;;;;;1.85;0.90;;;3.40;92.30;;;;;;5031419;28;20028;-73
2021/01/04 12:37:59;;;;;;;276.95;109.57;;;3.40;92.30;;;;;;5027573;28;20061;-73
2021/01/04 12:40:26;;;;;;;96.72;44.75;;;3.40;92.60;;;;;;5030300;28;20093;-73
2021/01/04 12:42:53;;;;;;;26.10;14.15;;;3.50;92.40;;;;;;5031274;28;20071;-73
2021/01/04 12:45:20;;;;;;;138.93;65.25;;;3.40;92.40;;;;;;5028386;28;20021;-72
2021/01/04 12:47:46;;;;;;;8.80;4.90;;;3.50;92.40;;;;;;5029512;28;20358;-73
2021/01/04 12:50:12;;;;;;;5.30;2.10;;;3.40;92.40;;;;;;5014466;28;20029;-74
2021/01/04 12:52:38;;;;;;;1.63;0.90;;;3.40;92.70;;;;;;5042171;28;20025;-75
2021/01/04 12:55:05;;;;;;;3.63;1.25;;;3.50;92.30;;;;;;5007006;28;20029;-72
2021/01/04 12:57:30;;;;;;;2.45;1.20;;;3.50;92.30;;;;;;5026920;28;20033;-73
2021/01/04 12:59:57;;;;;;;3.58;1.08;;;3.50;92.40;;;;;;5027663;28;20018;-74
2021/01/04 13:02:24;;;;;;;3.85;1.35;;;3.50;92.30;;;;;;5029014;28;20029;-71
2021/01/04 13:04:50;;;;;;;2.17;1.20;;;3.50;92.40;;;;;;5010199;28;20017;-72
2021/01/04 13:07:17;;;;;;;4.50;1.42;;;3.50;92.50;;;;;;5028051;28;20028;-71
2021/01/04 13:09:43;;;;;;;2.75;1.20;;;3.50;92.50;;;;;;5025789;28;20022;-73
2021/01/04 13:12:10;;;;;;;1.83;1.25;;;3.40;92.50;;;;;;5027730;28;20412;-72
2021/01/04 13:14:36;;;;;;;2.78;1.20;;;3.40;92.70;;;;;;5025335;28;20022;-73
2021/01/04 13:17:02;;;;;;;3.20;1.08;;;3.40;92.60;;;;;;5020318;28;20100;-71
2021/01/04 13:19:29;;;;;;;2.60;1.10;;;3.30;92.50;;;;;;5032609;28;20049;-74
2021/01/04 13:21:56;;;;;;;3.05;1.42;;;3.40;92.70;;;;;;5047030;28;20041;-73
2021/01/04 13:24:22;;;;;;;5.05;1.58;;;3.30;92.70;;;;;;5008992;28;20034;-74
2021/01/04 13:26:50;;;;;;;2.22;1.33;;;3.30;92.70;;;;;;5023212;28;20026;-74
2021/01/04 13:29:19;;;;;;;3.10;1.30;;;3.30;92.80;;;;;;5013838;28;20017;-73
2021/01/04 13:31:45;;;;;;;2.75;1.27;;;3.30;92.90;;;;;;5028801;28;20021;-75
2021/01/04 13:34:12;;;;;;;2.58;1.15;;;3.30;92.90;;;;;;5012579;28;20026;-71
2021/01/04 13:36:38;;;;;;;3.97;1.50;;;3.20;93.00;;;;;;5029130;28;20021;-74
2021/01/04 13:39:05;;;;;;;1.92;1.27;;;3.30;93.00;;;;;;5021755;28;20022;-72
2021/01/04 13:41:31;;;;;;;3.10;1.25;;;3.30;93.00;;;;;;5016325;28;20084;-71
2021/01/04 13:43:57;;;;;;;2.55;1.30;;;3.30;93.00;;;;;;5023249;28;20029;-73